Time;durP1;ratioP1;P1;durP2;ratioP2;P2;SDS_P1;SDS_P2;PMS_P1;PMS_P2;Temp;Humidity;BMP_temperature;BMP_pressure;BME280_temperature;BME280_humidity;BME280_pressure;Samples;Min_cycle;Max_cycle;Signal;HPM_P1;HPM_P2
2021/10/27 00:02:24;;;;;;;9.18;5.50;;;;;;;20.30;51.72;101919.47;5057877;28;20056;-68
2021/10/27 00:04:49;;;;;;;8.13;5.72;;;;;;;20.28;51.74;101932.00;5061173;28;20082;-69
2021/10/27 00:07:16;;;;;;;7.55;5.40;;;;;;;20.27;51.72;101927.69;5057243;28;21853;-68
2021/10/27 00:09:42;;;;;;;6.28;5.10;;;;;;;20.27;51.72;101931.16;5062935;28;20033;-69
2021/10/27 00:12:08;;;;;;;7.53;5.38;;;;;;;20.29;51.56;101925.72;5055705;28;20045;-68
2021/10/27 00:14:34;;;;;;;8.60;5.47;;;;;;;20.28;51.55;101918.78;5059714;28;20163;-68
2021/10/27 00:17:00;;;;;;;7.45;5.65;;;;;;;20.26;51.80;101923.38;5070657;28;20037;-69
2021/10/27 00:19:25;;;;;;;8.65;5.22;;;;;;;20.22;51.76;101931.66;5063497;28;20111;-69
2021/10/27 00:21:51;;;;;;;7.80;5.55;;;;;;;20.26;51.62;101928.69;5058359;28;20040;-69
2021/10/27 00:24:16;;;;;;;9.73;5.55;;;;;;;20.26;51.57;101933.97;5064718;28;20036;-68
2021/10/27 00:26:42;;;;;;;8.70;5.50;;;;;;;20.28;51.64;101930.19;5061121;28;20044;-69
2021/10/27 00:29:07;;;;;;;6.97;5.50;;;;;;;20.24;51.78;101934.13;5057086;28;20044;-68
2021/10/27 00:31:33;;;;;;;8.07;5.75;;;;;;;20.27;51.75;101944.38;5056489;28;20044;-68
2021/10/27 00:33:59;;;;;;;13.10;5.38;;;;;;;20.24;51.78;101926.19;5066271;28;20498;-69
2021/10/27 00:36:25;;;;;;;10.20;6.13;;;;;;;20.25;51.84;101929.66;5054842;28;20049;-69
2021/10/27 00:38:50;;;;;;;9.43;5.85;;;;;;;20.20;51.86;101923.03;5066421;28;20048;-69
2021/10/27 00:41:16;;;;;;;6.80;5.53;;;;;;;20.29;51.68;101923.06;5063888;28;20044;-68
2021/10/27 00:43:42;;;;;;;9.75;5.50;;;;;;;20.26;51.87;101924.22;5062768;28;20127;-69
2021/10/27 00:46:20;;;;;;;8.48;5.88;;;;;;;20.22;51.66;101923.72;5061060;28;20052;-68
2021/10/27 00:48:46;;;;;;;8.55;5.43;;;;;;;20.22;51.95;101928.16;5063989;28;20042;-68
2021/10/27 00:51:11;;;;;;;6.72;5.45;;;;;;;20.22;51.94;101928.16;5058977;28;20483;-68
2021/10/27 00:53:39;;;;;;;8.70;5.95;;;;;;;20.23;51.83;101924.53;5055133;28;20037;-68
2021/10/27 00:56:04;;;;;;;7.53;5.30;;;;;;;20.27;51.90;101938.28;5066466;28;20543;-69
2021/10/27 00:58:30;;;;;;;8.75;5.50;;;;;;;20.23;51.87;101937.75;5060709;28;20041;-68
2021/10/27 01:00:55;;;;;;;11.00;6.30;;;;;;;20.20;52.01;101927.50;5065478;28;20043;-68
2021/10/27 01:03:21;;;;;;;9.07;5.80;;;;;;;20.20;52.08;101932.78;5067237;28;20053;-68
2021/10/27 01:05:46;;;;;;;10.63;5.75;;;;;;;20.25;51.98;101927.84;5063148;28;20041;-68
2021/10/27 01:08:13;;;;;;;7.20;5.80;;;;;;;20.23;51.94;101919.25;5063659;28;20086;-68
2021/10/27 01:10:40;;;;;;;7.75;5.32;;;;;;;20.24;51.84;101936.78;5067475;28;20044;-68
2021/10/27 01:13:06;;;;;;;8.57;5.57;;;;;;;20.19;51.81;101929.31;5067904;28;20048;-69
2021/10/27 01:15:38;;;;;;;9.20;5.70;;;;;;;20.20;51.98;101924.84;5063550;28;20036;-68
2021/10/27 01:18:04;;;;;;;8.93;5.30;;;;;;;20.21;52.02;101927.34;5061806;28;20052;-68
2021/10/27 01:20:29;;;;;;;7.88;5.70;;;;;;;20.23;51.87;101933.31;5057103;28;20047;-68
2021/10/27 01:22:55;;;;;;;13.23;6.22;;;;;;;20.20;51.96;101930.16;5062396;28;20032;-68
2021/10/27 01:25:20;;;;;;;6.35;5.38;;;;;;;20.24;51.97;101934.13;5066600;28;20040;-68
2021/10/27 01:27:47;;;;;;;7.80;5.28;;;;;;;20.20;51.73;101938.06;5066226;28;20040;-68
2021/10/27 01:30:15;;;;;;;11.05;6.03;;;;;;;19.99;51.96;101897.94;5065546;28;20147;-68
2021/10/27 01:32:42;;;;;;;7.07;5.70;;;;;;;20.22;51.86;101928.16;5060159;28;20024;-68
2021/10/27 01:35:08;;;;;;;10.95;5.93;;;;;;;20.25;51.93;101927.84;5066088;28;20787;-68
2021/10/27 01:37:35;;;;;;;10.63;5.90;;;;;;;20.16;52.04;101932.28;5062453;28;20032;-68
2021/10/27 01:40:00;;;;;;;9.35;5.45;;;;;;;20.20;51.95;101933.63;5059798;28;20052;-68
2021/10/27 01:42:26;;;;;;;9.15;5.85;;;;;;;20.23;51.84;101935.13;5064368;28;20784;-68
2021/10/27 01:44:51;;;;;;;8.68;6.05;;;;;;;20.19;51.90;101931.97;5067128;28;20071;-68
2021/10/27 01:47:17;;;;;;;8.90;5.90;;;;;;;20.13;51.93;101927.31;5059387;28;20048;-69
2021/10/27 01:49:43;;;;;;;12.15;6.18;;;;;;;20.17;52.07;101936.56;5065537;28;20036;-69
2021/10/27 01:52:09;;;;;;;7.25;5.45;;;;;;;20.17;52.05;101933.09;5052335;28;20502;-69
2021/10/27 01:54:34;;;;;;;8.10;5.97;;;;;;;20.16;52.00;101934.09;5055245;28;20045;-68
2021/10/27 01:57:01;;;;;;;9.57;5.43;;;;;;;20.20;51.93;101928.31;5067854;28;20037;-69
2021/10/27 01:59:26;;;;;;;9.77;5.78;;;;;;;20.20;52.01;101930.97;5065646;28;20045;-69
2021/10/27 02:01:53;;;;;;;8.15;5.80;;;;;;;20.16;52.07;101919.06;5056235;28;20583;-69
2021/10/27 02:04:19;;;;;;;9.90;5.88;;;;;;;20.17;52.08;101917.22;5055291;28;20040;-68
2021/10/27 02:06:46;;;;;;;6.88;5.55;;;;;;;20.17;52.04;101926.00;5064968;28;20379;-68
2021/10/27 02:09:11;;;;;;;8.38;5.85;;;;;;;20.20;52.01;101917.75;5056031;28;20431;-68
2021/10/27 02:11:37;;;;;;;9.43;5.72;;;;;;;20.16;51.98;101916.41;5066854;28;20029;-69
2021/10/27 02:14:03;;;;;;;10.68;5.93;;;;;;;20.11;52.27;101918.69;5077816;28;20032;-68
2021/10/27 02:16:28;;;;;;;6.88;5.43;;;;;;;20.18;51.97;101919.72;5060164;28;20040;-69
2021/10/27 02:18:54;;;;;;;7.68;5.28;;;;;;;20.12;52.03;101915.06;5061066;28;20441;-69
2021/10/27 02:21:20;;;;;;;7.30;5.70;;;;;;;20.17;52.33;101920.72;5060712;28;20028;-68
2021/10/27 02:23:48;;;;;;;9.32;5.97;;;;;;;20.15;51.83;101898.88;5062316;28;20033;-68
2021/10/27 02:26:14;;;;;;;7.25;5.93;;;;;;;20.13;52.15;101906.16;5061586;28;20040;-69
2021/10/27 02:28:40;;;;;;;7.90;6.00;;;;;;;20.11;52.18;101910.75;5055247;28;20035;-69
2021/10/27 02:31:05;;;;;;;12.40;6.20;;;;;;;20.12;52.26;101904.50;5057654;28;20040;-69
2021/10/27 02:33:31;;;;;;;7.40;5.40;;;;;;;20.15;52.05;101900.69;5058426;28;20093;-69
2021/10/27 02:35:59;;;;;;;10.98;6.28;;;;;;;20.14;52.33;101896.41;5070119;28;20045;-69
2021/10/27 02:38:24;;;;;;;8.20;5.57;;;;;;;20.17;51.82;101899.56;5063067;28;20032;-68
2021/10/27 02:40:50;;;;;;;9.55;5.72;;;;;;;20.12;52.15;101899.19;5055479;28;20227;-68
2021/10/27 02:43:16;;;;;;;7.40;5.30;;;;;;;20.13;52.20;101903.50;5064597;28;20049;-68
2021/10/27 02:45:46;;;;;;;14.95;6.88;;;;;;;20.15;52.30;101892.75;5055467;28;20040;-68
2021/10/27 02:48:13;;;;;;;6.60;5.40;;;;;;;20.18;52.19;101892.44;5063528;28;20036;-69
2021/10/27 02:50:39;;;;;;;8.20;6.03;;;;;;;20.16;52.07;101892.59;5061760;28;20056;-69
2021/10/27 02:53:06;;;;;;;9.48;5.88;;;;;;;20.09;52.27;101877.50;5064975;28;20369;-69
2021/10/27 02:55:32;;;;;;;6.57;5.50;;;;;;;20.13;52.23;101889.44;5062364;28;20041;-68
2021/10/27 02:57:59;;;;;;;7.93;5.57;;;;;;;20.15;52.00;101884.81;5067678;28;20028;-68
2021/10/27 03:00:25;;;;;;;8.98;5.97;;;;;;;20.07;52.47;101893.53;5052832;28;20033;-68
2021/10/27 03:02:51;;;;;;;7.95;5.80;;;;;;;20.12;52.23;101890.44;5065120;28;20097;-68
2021/10/27 03:05:17;;;;;;;9.15;5.85;;;;;;;20.13;52.10;101890.28;5064244;28;20036;-68
2021/10/27 03:07:42;;;;;;;9.57;5.72;;;;;;;20.13;52.06;101889.44;5056858;28;20040;-68
2021/10/27 03:10:08;;;;;;;10.35;5.40;;;;;;;20.10;52.18;101887.91;5064729;28;20072;-69
2021/10/27 03:12:34;;;;;;;7.47;5.57;;;;;;;20.14;52.20;101889.28;5068336;28;20142;-68
2021/10/27 03:14:59;;;;;;;7.10;5.30;;;;;;;20.14;52.23;101896.41;5066430;28;20844;-68
2021/10/27 03:17:25;;;;;;;8.15;5.82;;;;;;;20.09;52.32;101896.84;5061144;28;20060;-68
2021/10/27 03:19:51;;;;;;;10.13;6.68;;;;;;;20.10;52.33;101892.38;5059593;28;20053;-68
2021/10/27 03:22:17;;;;;;;9.88;5.68;;;;;;;20.07;52.34;101897.97;5057768;28;20044;-69
2021/10/27 03:24:42;;;;;;;11.20;5.88;;;;;;;20.09;52.37;101891.56;5063497;28;20039;-69
2021/10/27 03:27:08;;;;;;;8.50;5.63;;;;;;;20.06;52.31;101902.44;5059000;28;20072;-68
2021/10/27 03:29:33;;;;;;;7.03;5.40;;;;;;;20.11;52.17;101902.81;5059410;28;20045;-69
2021/10/27 03:31:59;;;;;;;6.78;5.32;;;;;;;20.12;52.15;101901.84;5059853;28;20105;-69
2021/10/27 03:34:25;;;;;;;10.50;6.10;;;;;;;20.14;52.01;101909.63;5059666;28;20132;-68
2021/10/27 03:36:51;;;;;;;8.15;5.68;;;;;;;20.11;52.20;101905.47;5063805;28;20035;-68
2021/10/27 03:39:17;;;;;;;8.23;5.45;;;;;;;20.12;52.19;101908.94;5062591;28;20052;-68
2021/10/27 03:41:43;;;;;;;8.35;5.43;;;;;;;20.07;52.29;101912.03;5057616;28;20081;-68
2021/10/27 03:44:08;;;;;;;9.82;5.60;;;;;;;20.08;52.35;101910.22;5055383;28;20037;-68
2021/10/27 03:46:34;;;;;;;9.00;5.95;;;;;;;20.08;52.28;101905.75;5062393;28;20044;-68
2021/10/27 03:49:00;;;;;;;7.13;5.40;;;;;;;20.11;52.19;101896.72;5060801;28;20044;-68
2021/10/27 03:51:26;;;;;;;5.95;4.93;;;;;;;20.04;52.32;101890.38;5064696;28;20040;-69
2021/10/27 03:53:52;;;;;;;7.93;5.70;;;;;;;20.11;52.18;101892.25;5070017;28;20052;-68
2021/10/27 03:56:19;;;;;;;8.00;5.28;;;;;;;20.12;52.18;101908.94;5064632;28;20174;-68
2021/10/27 03:58:45;;;;;;;7.32;5.72;;;;;;;20.19;52.05;101907.31;5064061;28;20043;-68
2021/10/27 04:01:11;;;;;;;7.35;5.18;;;;;;;20.19;51.93;101908.16;5057473;28;20044;-68
2021/10/27 04:03:36;;;;;;;7.22;5.10;;;;;;;20.23;51.83;101914.78;5063967;28;20085;-69
2021/10/27 04:06:02;;;;;;;8.93;5.90;;;;;;;20.29;51.86;101909.84;5060865;28;20444;-69
2021/10/27 04:08:28;;;;;;;7.45;6.00;;;;;;;20.46;51.39;101927.50;5063007;28;20059;-68
2021/10/27 04:10:53;;;;;;;8.80;5.60;;;;;;;20.63;51.01;101920.47;5063412;28;20032;-68
2021/10/27 04:13:20;;;;;;;7.22;5.35;;;;;;;21.20;50.01;101921.53;5064528;28;20569;-69
2021/10/27 04:15:46;;;;;;;9.68;5.55;;;;;;;21.70;48.57;101916.13;5060951;28;20045;-68
2021/10/27 04:18:11;;;;;;;9.35;5.28;;;;;;;22.15;47.75;101927.25;5063898;28;20051;-68
2021/10/27 04:20:38;;;;;;;7.07;4.85;;;;;;;22.30;47.39;101930.84;5057830;28;20532;-68
2021/10/27 04:23:05;;;;;;;7.30;4.45;;;;;;;22.47;47.15;101932.47;5062493;28;20813;-68
2021/10/27 04:25:31;;;;;;;6.15;4.45;;;;;;;22.54;47.05;101924.66;5069538;28;20143;-68
2021/10/27 04:27:56;;;;;;;11.98;5.55;;;;;;;22.63;46.90;101931.59;5069607;28;20119;-68
2021/10/27 04:30:22;;;;;;;7.40;4.97;;;;;;;22.62;46.87;101924.59;5062274;28;20079;-68
2021/10/27 04:32:47;;;;;;;10.23;5.18;;;;;;;22.54;47.44;101936.09;5067035;28;20036;-68
2021/10/27 04:35:13;;;;;;;6.68;4.63;;;;;;;22.37;47.48;101929.16;5061959;28;20115;-69
2021/10/27 04:37:40;;;;;;;6.45;4.72;;;;;;;22.27;48.26;101933.84;5061115;28;20124;-69
2021/10/27 04:40:09;;;;;;;8.45;4.57;;;;;;;22.12;48.67;101932.88;5061455;28;20475;-69
2021/10/27 04:42:35;;;;;;;5.93;4.60;;;;;;;22.05;48.63;101939.84;5065954;28;20039;-69
2021/10/27 04:45:00;;;;;;;8.38;4.88;;;;;;;21.92;49.16;101937.69;5067206;28;20491;-68
2021/10/27 04:47:26;;;;;;;4.93;4.40;;;;;;;21.77;49.63;101940.16;5068093;28;20044;-69
2021/10/27 04:49:52;;;;;;;9.20;4.70;;;;;;;21.56;49.96;101937.19;5059377;28;20045;-69
2021/10/27 04:52:17;;;;;;;6.78;4.57;;;;;;;21.38;50.40;101943.44;5059313;28;20049;-68
2021/10/27 04:54:43;;;;;;;8.02;4.20;;;;;;;21.23;51.00;101949.50;5056373;28;20095;-68
2021/10/27 04:57:09;;;;;;;5.90;4.20;;;;;;;21.16;50.99;101937.88;5067964;28;20048;-68
2021/10/27 04:59:40;;;;;;;5.45;4.40;;;;;;;21.09;51.09;101943.00;5076657;28;20052;-69
2021/10/27 05:02:06;;;;;;;5.80;4.63;;;;;;;21.09;51.26;101935.88;5060955;28;20132;-69
2021/10/27 05:04:31;;;;;;;8.30;5.00;;;;;;;21.00;51.63;101936.00;5068446;28;20115;-69
2021/10/27 05:06:57;;;;;;;6.35;4.30;;;;;;;20.98;51.54;101925.56;5061829;28;20123;-69
2021/10/27 05:09:23;;;;;;;10.25;5.38;;;;;;;20.92;51.41;101926.22;5065998;28;20404;-69
2021/10/27 05:11:49;;;;;;;9.88;5.22;;;;;;;20.92;51.62;101928.88;5068329;28;20055;-68
2021/10/27 05:14:14;;;;;;;8.13;4.60;;;;;;;20.96;51.67;101919.63;5067943;28;20063;-69
2021/10/27 05:16:40;;;;;;;7.70;4.70;;;;;;;20.94;51.49;101918.97;5063328;28;20525;-69
2021/10/27 05:19:05;;;;;;;7.80;4.70;;;;;;;20.90;51.82;101930.03;5067453;28;20201;-68
2021/10/27 05:21:31;;;;;;;7.90;4.55;;;;;;;20.86;51.90;101920.75;5060687;28;20076;-69
2021/10/27 05:23:56;;;;;;;5.68;4.60;;;;;;;20.94;51.77;101921.59;5069148;28;20036;-68
2021/10/27 05:26:23;;;;;;;6.68;4.15;;;;;;;20.98;51.39;101914.16;5062413;28;20118;-68
2021/10/27 05:28:49;;;;;;;7.25;4.38;;;;;;;21.01;51.41;101913.88;5068667;28;20068;-68
2021/10/27 05:31:15;;;;;;;7.82;4.45;;;;;;;21.03;51.22;101914.53;5065268;28;20141;-68
2021/10/27 05:33:40;;;;;;;9.18;4.47;;;;;;;21.13;51.02;101920.50;5062918;28;20045;-68
2021/10/27 05:36:06;;;;;;;7.45;4.10;;;;;;;21.26;50.87;101928.03;5061759;28;20409;-68
2021/10/27 05:38:32;;;;;;;8.10;4.18;;;;;;;21.54;50.10;101912.63;5063336;28;20063;-69
2021/10/27 05:40:57;;;;;;;8.95;4.10;;;;;;;21.84;49.50;101921.75;5065172;28;20044;-68
2021/10/27 05:43:25;;;;;;;7.43;4.00;;;;;;;21.98;48.99;101918.44;5062247;28;20106;-69
2021/10/27 05:45:53;;;;;;;8.88;4.68;;;;;;;22.16;49.07;101919.09;5065466;28;22233;-69
2021/10/27 05:48:20;;;;;;;6.15;3.90;;;;;;;22.19;48.58;101921.41;5063631;28;20068;-68
2021/10/27 05:50:57;;;;;;;8.60;4.20;;;;;;;22.07;49.21;101920.09;5066215;28;20041;-69
2021/10/27 05:56:07;;;;;;;5.35;3.80;;;;;;;21.53;50.12;101925.06;5063298;28;20101;-69
2021/10/27 05:58:33;;;;;;;6.85;4.18;;;;;;;21.36;50.88;101932.19;5066790;28;20044;-69
2021/10/27 06:01:00;;;;;;;7.80;4.38;;;;;;;21.29;50.88;101930.34;5067173;28;20036;-69
2021/10/27 06:03:26;;;;;;;4.40;4.00;;;;;;;21.30;50.99;101932.00;5064142;28;20054;-69
2021/10/27 06:05:51;;;;;;;5.70;4.10;;;;;;;21.21;51.39;101936.44;5064258;28;20032;-68
2021/10/27 06:08:18;;;;;;;8.05;4.90;;;;;;;21.24;51.09;101938.78;5062478;28;20043;-69
2021/10/27 06:10:44;;;;;;;9.38;3.80;;;;;;;21.12;51.45;101930.25;5065673;28;20028;-69
2021/10/27 06:13:13;;;;;;;7.60;4.40;;;;;;;21.16;51.66;101949.31;5063188;28;20044;-69
2021/10/27 06:15:39;;;;;;;6.90;4.28;;;;;;;21.10;51.83;101942.84;5058038;28;20115;-68
2021/10/27 06:18:04;;;;;;;7.18;4.03;;;;;;;21.08;51.59;101946.66;5065058;28;20040;-68
2021/10/27 06:20:31;;;;;;;6.65;3.97;;;;;;;21.02;51.96;101960.53;5059565;28;20048;-68
2021/10/27 06:22:57;;;;;;;6.82;3.80;;;;;;;21.06;51.85;101948.63;5062342;28;20036;-68
2021/10/27 06:25:24;;;;;;;7.43;3.70;;;;;;;21.08;51.89;101951.94;5079489;28;20067;-68
2021/10/27 06:27:57;;;;;;;7.45;4.18;;;;;;;20.90;51.83;101917.63;5052862;28;20044;-69
2021/10/27 06:30:28;;;;;;;6.90;3.85;;;;;;;21.12;51.86;101958.56;5064399;28;20482;-69
2021/10/27 06:35:29;;;;;;;4.68;3.90;;;;;;;21.02;51.82;101968.47;5061632;28;20040;-69
2021/10/27 06:48:52;;;;;;;6.40;3.72;;;;;;;20.99;52.04;101987.31;5058061;28;20040;-69
2021/10/27 06:51:18;;;;;;;9.00;3.92;;;;;;;20.97;52.09;101990.13;5061364;28;20085;-68
2021/10/27 06:53:43;;;;;;;7.03;4.07;;;;;;;21.04;51.86;101988.50;5058010;28;20028;-69
2021/10/27 06:56:12;;;;;;;6.45;3.50;;;;;;;21.08;51.77;101991.66;5057093;28;20099;-68
2021/10/27 06:59:08;;;;;;;6.82;4.43;;;;;;;21.10;51.47;101982.56;5060365;28;20040;-69
2021/10/27 07:17:33;;;;;;;7.90;4.13;;;;;;;21.07;52.06;102006.72;5057777;28;20360;-69
2021/10/27 07:20:00;;;;;;;8.48;4.32;;;;;;;21.07;52.25;102001.44;5063261;28;20147;-68
2021/10/27 07:22:26;;;;;;;9.07;3.67;;;;;;;21.12;52.04;102001.78;5063438;28;20047;-69
2021/10/27 07:24:52;;;;;;;10.98;4.55;;;;;;;21.16;51.77;101994.34;5064262;28;20024;-71
2021/10/27 07:27:19;;;;;;;7.28;3.92;;;;;;;21.08;52.22;101999.63;5058211;28;20037;-68
2021/10/27 07:29:45;;;;;;;8.85;4.15;;;;;;;21.09;52.42;102004.75;5057239;28;20051;-68
2021/10/27 07:32:14;;;;;;;5.22;3.50;;;;;;;21.10;52.39;102013.53;5061740;28;20479;-69
2021/10/27 07:34:55;;;;;;;6.95;4.32;;;;;;;21.03;52.48;102012.50;5060645;28;20040;-69
2021/10/27 07:42:40;;;;;;;11.13;4.75;;;;;;;21.03;52.58;102028.41;5063228;28;20052;-69
2021/10/27 07:45:06;;;;;;;9.15;4.18;;;;;;;21.01;52.42;102019.78;5062605;28;20043;-68
2021/10/27 07:47:32;;;;;;;8.85;4.80;;;;;;;21.09;52.21;102027.75;5055352;28;20063;-68
2021/10/27 07:49:58;;;;;;;7.38;4.25;;;;;;;21.00;52.43;102034.00;5056031;28;20425;-69
2021/10/27 07:52:24;;;;;;;6.20;4.00;;;;;;;20.95;52.28;102015.94;5058977;28;20061;-68
2021/10/27 07:54:53;;;;;;;6.30;4.28;;;;;;;21.06;52.34;102041.31;5055353;28;20550;-68
2021/10/27 07:57:20;;;;;;;7.55;4.10;;;;;;;20.95;52.37;102037.13;5055366;28;20084;-69
2021/10/27 07:59:46;;;;;;;6.35;4.20;;;;;;;20.94;52.79;102042.56;5051714;28;20048;-68
2021/10/27 08:02:11;;;;;;;6.00;4.18;;;;;;;20.96;52.67;102043.25;5061125;28;20040;-68
2021/10/27 08:04:37;;;;;;;10.20;4.35;;;;;;;20.95;52.77;102044.22;5068713;28;20537;-68
2021/10/27 08:07:03;;;;;;;10.88;4.53;;;;;;;20.88;52.90;102057.28;5061625;28;20074;-70
2021/10/27 08:09:29;;;;;;;5.55;3.70;;;;;;;20.99;52.87;102057.00;5068476;28;20084;-69
2021/10/27 08:11:55;;;;;;;10.35;4.35;;;;;;;20.80;52.63;102030.75;5058180;28;20068;-68
2021/10/27 08:14:21;;;;;;;6.82;4.13;;;;;;;20.95;52.49;102060.94;5067226;28;20482;-69
2021/10/27 08:16:47;;;;;;;8.90;4.28;;;;;;;20.98;52.30;102073.88;5066304;28;20271;-69
2021/10/27 08:19:13;;;;;;;10.57;4.50;;;;;;;20.95;52.46;102071.53;5063904;28;20083;-69
2021/10/27 08:21:41;;;;;;;8.32;4.28;;;;;;;21.00;52.24;102071.06;5064305;28;20718;-69
2021/10/27 08:24:08;;;;;;;6.80;4.07;;;;;;;21.00;52.14;102063.94;5066931;28;20054;-69
2021/10/27 08:26:35;;;;;;;10.80;4.78;;;;;;;20.78;52.43;102054.72;5066681;28;20072;-69
2021/10/27 08:29:11;;;;;;;7.78;4.32;;;;;;;20.92;52.45;102078.97;5067036;28;20048;-67
2021/10/27 08:31:41;;;;;;;8.02;4.35;;;;;;;20.69;53.18;102082.16;5062319;28;20044;-72
2021/10/27 08:34:12;;;;;;;9.02;4.18;;;;;;;20.72;52.98;102076.53;5065754;28;20053;-72
2021/10/27 08:36:38;;;;;;;8.73;5.18;;;;;;;20.78;52.83;102083.84;5069332;28;20063;-72
2021/10/27 08:39:08;;;;;;;6.00;4.40;;;;;;;20.85;52.54;102084.06;5054369;28;20037;-72
2021/10/27 08:41:36;;;;;;;6.70;4.30;;;;;;;20.89;52.24;102087.25;5062025;28;20798;-72
2021/10/27 08:44:03;;;;;;;5.90;4.13;;;;;;;20.87;52.21;102084.75;5064801;28;20047;-72
2021/10/27 08:46:30;;;;;;;6.30;4.00;;;;;;;20.82;52.30;102081.72;5064430;28;20060;-72
2021/10/27 08:48:57;;;;;;;6.28;4.05;;;;;;;20.89;52.06;102084.59;5061360;28;20822;-71
2021/10/27 08:51:27;;;;;;;5.85;4.28;;;;;;;20.90;51.93;102075.66;5061052;28;20479;-71
2021/10/27 08:53:53;;;;;;;6.53;4.30;;;;;;;20.92;51.94;102084.28;5063593;28;20487;-71
2021/10/27 08:56:19;;;;;;;7.63;4.75;;;;;;;21.09;51.44;102088.66;5062978;28;20062;-72
2021/10/27 08:58:49;;;;;;;6.97;4.53;;;;;;;20.98;51.70;102087.13;5065345;28;20035;-71
2021/10/27 09:01:36;;;;;;;6.38;4.38;;;;;;;21.04;51.54;102085.69;5060991;28;20040;-70
2021/10/27 09:07:08;;;;;;;6.00;3.88;;;;;;;20.99;51.66;102088.78;5052751;28;20479;-73
2021/10/27 09:09:53;;;;;;;9.02;4.32;;;;;;;21.13;52.01;102082.06;5054920;28;20143;-71
2021/10/27 10:04:16;;;;;;;7.20;4.60;;;;;;;21.05;51.96;102090.81;5062103;28;20492;-73
2021/10/27 10:06:44;;;;;;;6.55;4.18;;;;;;;21.10;52.26;102093.81;5064788;28;20048;-74
2021/10/27 10:09:11;;;;;;;7.78;4.50;;;;;;;20.89;53.03;102093.38;5065197;28;20086;-72
2021/10/27 10:11:37;;;;;;;5.68;4.22;;;;;;;21.04;52.48;102098.91;5065117;28;20029;-73
2021/10/27 10:14:10;;;;;;;6.63;4.50;;;;;;;21.02;52.49;102093.78;5063018;28;20147;-73
2021/10/27 10:16:40;;;;;;;7.45;4.18;;;;;;;20.99;52.49;102091.41;5065673;28;20036;-74
2021/10/27 10:19:11;;;;;;;5.05;4.25;;;;;;;21.00;52.34;102103.66;5063210;28;20450;-72
2021/10/27 10:21:43;;;;;;;9.50;4.47;;;;;;;21.00;52.33;102093.06;5056079;28;20053;-73
2021/10/27 10:24:15;;;;;;;6.80;4.50;;;;;;;20.92;52.82;102085.09;5064946;28;20134;-76
2021/10/27 10:26:42;;;;;;;6.13;4.70;;;;;;;20.88;52.98;102091.69;5060743;28;20047;-73
2021/10/27 10:29:07;;;;;;;6.10;4.55;;;;;;;20.94;52.99;102085.78;5056218;28;20565;-75
2021/10/27 10:31:36;;;;;;;6.63;4.97;;;;;;;20.91;52.95;102067.56;5064000;28;20041;-77
2021/10/27 10:34:08;;;;;;;5.35;4.18;;;;;;;20.88;53.68;102081.13;5064946;28;20561;-77
2021/10/27 10:36:39;;;;;;;7.00;4.85;;;;;;;20.87;53.51;102076.81;5065919;28;20028;-76
2021/10/27 10:42:22;;;;;;;6.72;4.47;;;;;;;20.81;53.61;102095.94;5060924;28;20036;-77
2021/10/27 10:57:17;;;;;;;7.63;4.20;;;;;;;20.85;53.71;102094.66;5019530;28;20442;-77
2021/10/27 11:41:46;;;;;;;7.07;4.47;;;;;;;21.01;52.56;102078.88;5050913;28;20049;-72
2021/10/27 11:44:29;;;;;;;6.22;4.38;;;;;;;20.97;52.80;102082.81;5056923;28;20055;-72
2021/10/27 11:47:01;;;;;;;7.28;4.50;;;;;;;20.97;52.46;102082.81;5059280;28;20047;-73
2021/10/27 11:49:39;;;;;;;8.75;3.92;;;;;;;20.95;52.85;102079.47;5064375;28;20138;-72
2021/10/27 11:52:05;;;;;;;10.10;5.07;;;;;;;20.89;52.79;102074.81;5060142;28;20115;-74
2021/10/27 11:54:31;;;;;;;7.65;3.78;;;;;;;20.93;52.68;102072.69;5063900;28;20044;-72
2021/10/27 11:57:02;;;;;;;7.47;4.45;;;;;;;20.94;52.97;102077.00;5059598;28;20032;-72
2021/10/27 11:59:44;;;;;;;8.27;4.40;;;;;;;20.92;52.93;102076.31;5061775;28;20068;-73
2021/10/27 12:02:10;;;;;;;7.70;3.90;;;;;;;20.94;52.70;102067.25;5059145;28;20040;-72
2021/10/27 12:04:36;;;;;;;6.13;3.85;;;;;;;20.87;52.82;102065.38;5056696;28;20028;-72
2021/10/27 12:07:11;;;;;;;5.65;4.35;;;;;;;20.90;52.78;102073.84;5058415;28;20040;-72
2021/10/27 12:17:59;;;;;;;7.30;4.28;;;;;;;20.95;52.50;102055.66;5063339;28;20036;-72
2021/10/27 12:20:52;;;;;;;6.45;4.00;;;;;;;20.96;52.48;102056.47;5058394;28;20070;-72
2021/10/27 12:23:20;;;;;;;8.27;4.20;;;;;;;20.95;52.59;102063.59;5063796;28;20035;-72
2021/10/27 12:25:47;;;;;;;8.77;3.75;;;;;;;20.90;52.65;102057.13;5065113;28;20123;-72
2021/10/27 12:28:30;;;;;;;8.02;4.00;;;;;;;20.95;52.69;102047.72;5066368;28;20060;-72
2021/10/27 12:30:56;;;;;;;6.20;3.75;;;;;;;20.92;52.59;102061.28;5054638;28;20132;-73
2021/10/27 12:33:41;;;;;;;6.57;3.95;;;;;;;20.85;52.59;102047.00;5060345;28;20041;-72
2021/10/27 12:36:24;;;;;;;6.70;4.30;;;;;;;20.82;53.02;102049.94;5057859;28;20601;-72
2021/10/27 12:39:26;;;;;;;5.95;3.95;;;;;;;20.83;53.04;102050.81;5058206;28;20047;-72
2021/10/27 12:42:05;;;;;;;10.35;3.80;;;;;;;20.83;53.02;102064.03;5056606;28;20468;-72
2021/10/27 12:44:33;;;;;;;7.20;3.97;;;;;;;20.86;52.78;102055.78;5058096;28;20063;-72
2021/10/27 12:47:16;;;;;;;6.28;3.83;;;;;;;20.81;52.65;102059.72;5063636;28;20330;-72
2021/10/27 12:49:45;;;;;;;8.25;4.13;;;;;;;20.83;52.78;102054.28;5077915;28;20553;-72
2021/10/27 12:52:30;;;;;;;4.90;3.42;;;;;;;20.82;52.72;102055.25;5061696;28;20551;-72
2021/10/27 12:55:18;;;;;;;7.97;3.83;;;;;;;20.79;52.97;102052.91;5061289;28;20076;-72
2021/10/27 12:57:48;;;;;;;7.65;4.15;;;;;;;20.78;52.89;102045.97;5061105;28;20052;-71
2021/10/27 13:00:22;;;;;;;6.78;3.85;;;;;;;20.80;52.79;102039.50;5057451;28;20119;-72
2021/10/27 13:03:02;;;;;;;5.93;3.60;;;;;;;20.76;52.78;102038.19;5055142;28;20036;-72
2021/10/27 13:05:33;;;;;;;6.75;3.65;;;;;;;20.77;53.00;102033.72;5059672;28;20040;-72
2021/10/27 13:08:08;;;;;;;5.68;3.80;;;;;;;20.75;52.92;102038.34;5062675;28;20044;-72
2021/10/27 13:11:22;;;;;;;6.40;3.60;;;;;;;20.73;53.04;102035.84;5058425;28;20045;-72
2021/10/27 13:13:37;;;;;;;6.15;3.70;;;;;;;20.78;52.73;102027.44;5057986;28;20055;-71
2021/10/27 13:31:58;;;;;;;7.95;3.83;;;;;;;20.78;52.79;102025.59;5065918;28;20036;-72
2021/10/27 13:34:25;;;;;;;6.45;3.70;;;;;;;20.78;52.81;102036.19;5061701;28;20047;-72
2021/10/27 13:36:54;;;;;;;7.65;3.72;;;;;;;20.75;52.70;102028.56;5062098;28;20067;-72
2021/10/27 13:39:21;;;;;;;4.45;3.38;;;;;;;20.75;52.70;102031.22;5056189;28;20048;-72
2021/10/27 13:41:56;;;;;;;5.35;4.18;;;;;;;20.70;52.89;102035.34;5059756;28;20701;-72
2021/10/27 13:44:24;;;;;;;7.25;3.90;;;;;;;20.67;52.82;102038.31;5055736;28;20055;-72
2021/10/27 13:47:05;;;;;;;8.88;3.42;;;;;;;20.78;52.71;102040.66;5059380;28;20041;-72
2021/10/27 13:57:55;;;;;;;10.23;3.70;;;;;;;20.67;52.90;102035.66;5064192;28;20033;-72
2021/10/27 14:06:04;;;;;;;5.38;2.90;;;;;;;20.79;52.65;102039.69;5069116;28;20155;-73
2021/10/27 14:08:48;;;;;;;6.03;3.50;;;;;;;20.82;52.63;102036.72;5055045;28;20123;-73
2021/10/27 14:11:22;;;;;;;5.53;3.22;;;;;;;20.83;52.35;102033.09;5054115;28;20547;-73
2021/10/27 14:41:15;;;;;;;6.97;3.42;;;;;;;20.81;52.53;102013.88;5052656;28;20368;-73
2021/10/27 15:21:43;;;;;;;7.80;3.75;;;;;;;20.80;52.32;102013.03;5053265;28;20949;-73
2021/10/27 15:51:23;;;;;;;6.10;3.28;;;;;;;20.72;52.79;102005.06;5049031;28;20119;-72
2021/10/27 15:53:53;;;;;;;7.78;3.53;;;;;;;20.66;52.90;102008.34;5051563;28;20170;-74
2021/10/27 15:56:19;;;;;;;4.30;3.15;;;;;;;20.71;53.00;102014.00;5053045;28;20049;-73
2021/10/27 15:58:45;;;;;;;6.80;4.00;;;;;;;20.68;52.80;102010.84;5049695;28;20072;-73
2021/10/27 16:01:11;;;;;;;5.30;3.33;;;;;;;20.65;52.78;102017.28;5054657;28;20045;-68
2021/10/27 16:03:36;;;;;;;4.72;3.10;;;;;;;20.65;52.99;102011.16;5049173;28;20064;-67
2021/10/27 16:06:03;;;;;;;6.68;3.53;;;;;;;20.68;52.92;102011.66;5049893;28;20078;-67
2021/10/27 16:08:29;;;;;;;5.50;3.10;;;;;;;20.69;52.76;102008.03;5052334;28;20705;-67
2021/10/27 16:10:55;;;;;;;5.30;3.17;;;;;;;20.73;52.69;102008.53;5048256;28;20017;-67